Time;durP1;ratioP1;P1;durP2;ratioP2;P2;SDS_P1;SDS_P2;PMS_P1;PMS_P2;Temp;Humidity;BMP_temperature;BMP_pressure;BME280_temperature;BME280_humidity;BME280_pressure;Samples;Min_cycle;Max_cycle;Signal;HPM_P1;HPM_P2
2021/04/01 00:01:10;;;;;;;6.95;1.75;;;;;;;11.26;38.17;93257.13;2065084;69;20137;-74
2021/04/01 00:03:37;;;;;;;4.32;1.55;;;;;;;11.17;39.46;93266.38;2065171;69;20153;-74
2021/04/01 00:06:03;;;;;;;3.78;1.80;;;;;;;11.12;39.01;93258.97;2064875;69;20200;-74
2021/04/01 00:08:29;;;;;;;5.78;1.70;;;;;;;11.15;39.13;93260.59;2064984;69;20192;-74
2021/04/01 00:10:55;;;;;;;4.15;1.77;;;;;;;11.18;38.81;93256.59;2064825;69;20604;-76
2021/04/01 00:13:20;;;;;;;6.35;1.70;;;;;;;10.98;38.87;93258.03;2061325;69;20173;-72
2021/04/01 00:15:46;;;;;;;6.40;2.08;;;;;;;11.06;38.30;93261.41;2061746;69;20532;-72
2021/04/01 00:18:16;;;;;;;7.65;1.90;;;;;;;11.34;38.99;93251.28;2064930;69;20572;-76
2021/04/01 00:20:42;;;;;;;8.85;2.20;;;;;;;11.11;39.70;93249.78;2064919;69;20148;-76
2021/04/01 00:23:08;;;;;;;3.80;1.27;;;;;;;11.07;39.85;93255.16;2064935;69;20145;-75
2021/04/01 00:25:34;;;;;;;6.15;1.88;;;;;;;10.82;39.96;93255.59;2065121;69;20153;-72
2021/04/01 00:27:59;;;;;;;7.03;1.60;;;;;;;10.80;39.39;93249.06;2065018;69;20128;-72
2021/04/01 00:30:25;;;;;;;5.82;1.60;;;;;;;11.06;39.48;93247.31;2061644;69;20173;-74
2021/04/01 00:32:51;;;;;;;3.33;1.63;;;;;;;11.09;38.94;93255.31;2065162;69;20152;-72
2021/04/01 00:35:17;;;;;;;7.57;1.60;;;;;;;10.88;39.20;93253.16;2065052;69;20142;-72
2021/04/01 00:37:43;;;;;;;7.30;1.50;;;;;;;10.97;38.98;93253.72;2065102;69;20239;-73
2021/04/01 00:40:09;;;;;;;5.85;1.70;;;;;;;10.91;38.93;93251.97;2065190;69;20194;-74
2021/04/01 00:42:36;;;;;;;3.58;1.50;;;;;;;11.11;38.42;93252.59;2064994;69;20260;-77
2021/04/01 00:45:08;;;;;;;8.95;1.67;;;;;;;10.76;39.55;93248.78;2064879;69;20596;-72
2021/04/01 00:47:36;;;;;;;5.10;1.73;;;;;;;10.87;39.30;93257.34;2065125;69;20616;-72
2021/04/01 00:50:03;;;;;;;6.72;1.95;;;;;;;10.71;39.66;93255.47;2061272;69;20196;-72
2021/04/01 00:52:29;;;;;;;7.55;1.88;;;;;;;10.51;40.39;93243.56;2065044;69;20152;-72
2021/04/01 00:54:55;;;;;;;7.72;1.80;;;;;;;10.40;40.29;93253.34;2065084;69;20137;-73
2021/04/01 00:57:20;;;;;;;6.70;1.70;;;;;;;10.35;41.51;93243.88;2064935;69;20157;-72
2021/04/01 00:59:46;;;;;;;6.53;1.90;;;;;;;10.25;42.03;93246.00;2064951;69;20196;-73
2021/04/01 01:02:12;;;;;;;3.50;1.50;;;;;;;10.34;40.91;93245.22;2061644;69;20589;-73
2021/04/01 01:04:38;;;;;;;4.32;1.50;;;;;;;10.65;40.45;93241.72;2064989;69;20255;-74
2021/04/01 01:07:04;;;;;;;4.03;1.38;;;;;;;10.63;40.36;93236.69;2061488;69;20156;-75
2021/04/01 01:09:29;;;;;;;5.50;1.50;;;;;;;10.41;40.02;93230.25;2061155;69;20181;-77
2021/04/01 01:11:55;;;;;;;7.05;1.75;;;;;;;10.57;40.07;93238.34;2064736;69;20183;-73
2021/04/01 01:14:21;;;;;;;7.90;1.50;;;;;;;10.50;39.77;93231.56;2064471;69;20243;-73
2021/04/01 01:16:47;;;;;;;4.68;1.50;;;;;;;10.57;39.81;93239.06;2058252;69;20153;-73
2021/04/01 01:19:14;;;;;;;3.70;1.65;;;;;;;10.43;39.81;93238.81;2064625;69;20226;-73
2021/04/01 01:21:40;;;;;;;4.97;1.70;;;;;;;10.45;40.02;93231.88;2061409;69;20151;-72
2021/04/01 01:24:13;;;;;;;3.60;1.40;;;;;;;10.57;41.03;93236.25;2064796;69;20128;-73
2021/04/01 01:26:40;;;;;;;2.53;1.63;;;;;;;9.97;42.02;93232.69;2061520;69;20607;-73
2021/04/01 01:29:08;;;;;;;8.10;1.80;;;;;;;9.85;41.35;93229.75;2064698;69;20144;-73
2021/04/01 01:31:38;;;;;;;6.63;1.90;;;;;;;9.94;43.00;93226.19;2061504;69;20141;-73
2021/04/01 01:34:04;;;;;;;6.95;1.90;;;;;;;9.98;42.65;93228.53;2064825;69;20581;-72
2021/04/01 01:36:30;;;;;;;6.30;1.60;;;;;;;10.06;41.75;93223.50;2058810;69;20660;-73
2021/04/01 01:38:55;;;;;;;10.88;1.77;;;;;;;10.37;40.04;93215.91;2061546;69;20210;-75
2021/04/01 01:41:22;;;;;;;4.53;1.60;;;;;;;10.29;40.10;93226.56;2064799;69;20152;-76
2021/04/01 01:43:49;;;;;;;6.97;1.73;;;;;;;10.25;40.25;93219.94;2064903;69;20143;-74
2021/04/01 01:46:14;;;;;;;7.00;2.10;;;;;;;10.10;40.77;93221.72;2064726;69;20153;-72
2021/04/01 01:48:40;;;;;;;4.32;1.88;;;;;;;9.84;41.90;93228.28;2064627;69;20160;-75
2021/04/01 01:51:06;;;;;;;5.47;1.60;;;;;;;10.05;41.39;93219.22;2064656;69;20145;-73
2021/04/01 01:53:31;;;;;;;6.88;1.67;;;;;;;9.83;42.07;93221.91;2064711;69;20152;-72
2021/04/01 01:55:57;;;;;;;7.35;1.67;;;;;;;9.90;42.07;93226.66;2064404;69;20654;-72
2021/04/01 01:58:23;;;;;;;4.63;1.50;;;;;;;10.05;41.18;93227.66;2064693;69;20556;-73
2021/04/01 02:00:55;;;;;;;6.43;1.50;;;;;;;9.94;41.89;93223.38;2064574;69;20533;-72
2021/04/01 02:03:26;;;;;;;5.20;1.77;;;;;;;9.88;41.68;93223.69;2064317;69;20520;-72
2021/04/01 02:05:52;;;;;;;5.38;1.63;;;;;;;9.94;41.71;93223.38;2064536;69;20161;-74
2021/04/01 02:08:19;;;;;;;5.47;1.90;;;;;;;9.91;41.91;93222.50;2064455;69;20133;-74
2021/04/01 02:10:48;;;;;;;3.90;1.58;;;;;;;9.88;40.91;93220.88;2064332;69;20263;-73
2021/04/01 02:13:16;;;;;;;8.65;1.58;;;;;;;9.55;41.92;93220.59;2061415;69;20160;-72
2021/04/01 02:15:43;;;;;;;6.72;1.70;;;;;;;9.69;41.97;93218.09;2064885;69;20593;-73
2021/04/01 02:18:11;;;;;;;4.00;1.50;;;;;;;9.65;42.70;93226.97;2064748;69;20168;-73
2021/04/01 02:20:41;;;;;;;4.30;1.60;;;;;;;9.74;42.24;93219.84;2064749;69;20148;-74
2021/04/01 02:23:14;;;;;;;4.40;1.90;;;;;;;9.86;41.53;93228.44;2064814;69;20568;-74
2021/04/01 02:25:41;;;;;;;4.00;1.45;;;;;;;9.92;40.97;93221.16;2064972;69;20145;-77
2021/04/01 02:28:08;;;;;;;7.72;1.50;;;;;;;9.90;41.52;93221.03;2065017;69;20149;-78
2021/04/01 02:30:35;;;;;;;8.88;1.90;;;;;;;9.79;41.93;93212.44;2064813;69;20165;-77
2021/04/01 02:33:00;;;;;;;7.50;1.77;;;;;;;9.01;44.13;93212.44;2064926;69;20144;-78
2021/04/01 02:35:26;;;;;;;6.80;2.00;;;;;;;8.75;44.61;93213.25;2064918;69;20149;-77
2021/04/01 02:37:52;;;;;;;5.90;1.90;;;;;;;9.21;43.55;93213.22;2064820;69;20168;-77
2021/04/01 02:40:18;;;;;;;7.35;2.00;;;;;;;9.05;44.26;93201.50;2064989;69;20143;-77
2021/04/01 02:42:45;;;;;;;4.15;1.67;;;;;;;9.06;45.29;93194.56;2064939;69;20129;-77
2021/04/01 02:45:12;;;;;;;7.35;1.73;;;;;;;9.39;42.94;93189.25;2064823;69;20137;-77
2021/04/01 02:47:38;;;;;;;5.78;1.65;;;;;;;9.66;41.82;93197.50;2064835;69;20137;-77
2021/04/01 02:50:06;;;;;;;6.28;1.60;;;;;;;9.59;41.41;93192.78;2064942;69;20167;-77
2021/04/01 02:52:37;;;;;;;8.18;1.75;;;;;;;9.60;41.90;93194.28;2064956;69;20137;-75
2021/04/01 02:55:04;;;;;;;6.97;1.63;;;;;;;9.47;42.82;93188.34;2061594;69;20153;-74
2021/04/01 02:57:30;;;;;;;8.52;1.80;;;;;;;9.61;41.91;93192.19;2065074;69;20233;-75
2021/04/01 02:59:56;;;;;;;5.18;1.80;;;;;;;9.49;41.51;93189.25;2064870;69;20601;-75
2021/04/01 03:02:25;;;;;;;4.70;1.52;;;;;;;9.36;41.95;93192.50;2061623;69;20244;-77
2021/04/01 03:04:51;;;;;;;4.40;2.05;;;;;;;9.37;42.53;93203.16;2065080;69;20168;-75
2021/04/01 03:07:16;;;;;;;6.55;1.60;;;;;;;9.51;42.54;93194.28;2064918;69;20180;-76
2021/04/01 03:09:42;;;;;;;3.83;1.55;;;;;;;9.48;42.85;93193.38;2064891;69;20215;-76
2021/04/01 03:12:08;;;;;;;6.10;1.90;;;;;;;9.20;43.44;93199.75;2064948;69;20232;-77
2021/04/01 03:14:34;;;;;;;6.78;2.10;;;;;;;9.05;43.74;93193.06;2064805;69;20152;-77
2021/04/01 03:17:00;;;;;;;6.15;1.95;;;;;;;9.18;42.96;93197.53;2064873;69;20153;-77
2021/04/01 03:19:26;;;;;;;4.70;1.67;;;;;;;9.11;43.15;93201.22;2065162;69;20137;-77
2021/04/01 03:21:52;;;;;;;5.53;1.90;;;;;;;8.82;43.80;93198.38;2064896;69;20129;-77
2021/04/01 03:24:18;;;;;;;9.07;3.78;;;;;;;8.77;45.09;93196.59;2064909;69;20152;-74
2021/04/01 03:26:43;;;;;;;8.10;2.78;;;;;;;8.52;45.48;93202.41;2064893;69;20504;-75
2021/04/01 03:29:09;;;;;;;6.43;2.40;;;;;;;8.48;45.87;93197.25;2064866;69;20149;-76
2021/04/01 03:31:35;;;;;;;5.43;1.60;;;;;;;8.97;43.14;93186.13;2064882;69;20228;-77
2021/04/01 03:34:01;;;;;;;6.43;2.10;;;;;;;9.08;42.93;93196.78;2064931;69;20144;-75
2021/04/01 03:36:26;;;;;;;6.47;2.03;;;;;;;9.11;42.71;93182.28;2065051;69;20243;-76
2021/04/01 03:38:52;;;;;;;7.00;1.98;;;;;;;8.61;44.88;93188.44;2064985;69;20137;-77
2021/04/01 03:41:18;;;;;;;4.18;1.90;;;;;;;8.40;45.12;93186.13;2064847;69;20145;-77
2021/04/01 03:43:44;;;;;;;7.07;1.88;;;;;;;8.47;45.55;93186.59;2064720;69;20170;-77
2021/04/01 03:46:12;;;;;;;4.18;1.77;;;;;;;8.60;46.11;93189.00;2064982;69;20219;-77
2021/04/01 03:48:37;;;;;;;6.65;1.80;;;;;;;8.50;45.74;93182.63;2064852;69;20148;-77
2021/04/01 03:51:04;;;;;;;13.48;2.08;;;;;;;8.57;45.59;93193.00;2061600;69;20161;-77
2021/04/01 03:53:32;;;;;;;9.27;1.85;;;;;;;8.40;45.71;93194.56;2061482;69;20518;-74
2021/04/01 03:55:58;;;;;;;7.30;3.30;;;;;;;8.06;46.73;93183.44;2064828;69;20228;-74
2021/04/01 04:06:34;;;;;;;10.73;2.15;;;;;;;8.11;46.65;93194.41;2064897;69;20210;-76
2021/04/01 04:11:52;;;;;;;6.95;1.83;;;;;;;8.58;44.42;93194.47;2061476;69;20191;-75
2021/04/01 04:14:41;;;;;;;8.88;1.95;;;;;;;8.73;44.89;93185.78;2061469;69;20597;-74
2021/04/01 04:17:06;;;;;;;8.68;1.60;;;;;;;8.68;44.03;93183.25;2064768;69;20162;-75
2021/04/01 04:19:32;;;;;;;5.05;2.00;;;;;;;8.22;45.72;93189.59;2065031;69;20581;-76
2021/04/01 04:21:58;;;;;;;13.32;2.50;;;;;;;8.09;46.91;93182.28;2065361;69;20195;-75
2021/04/01 04:24:24;;;;;;;8.27;2.20;;;;;;;8.24;45.72;93179.25;2065297;69;20522;-74
2021/04/01 04:26:51;;;;;;;6.53;2.20;;;;;;;8.30;45.48;93176.94;2065290;69;20180;-77
2021/04/01 04:29:17;;;;;;;9.07;2.20;;;;;;;8.37;45.43;93175.34;2065239;69;20148;-77
2021/04/01 04:31:43;;;;;;;11.70;2.70;;;;;;;8.10;46.40;93166.94;2065294;69;20176;-77
2021/04/01 04:34:09;;;;;;;12.23;2.80;;;;;;;7.82;47.35;93174.63;2065279;69;20223;-76
2021/04/01 04:36:34;;;;;;;8.65;2.70;;;;;;;7.78;47.96;93174.31;2065200;69;20516;-77
2021/04/01 04:39:00;;;;;;;9.50;2.83;;;;;;;7.99;46.67;93181.50;2065218;69;20164;-77
2021/04/01 04:41:26;;;;;;;6.43;2.50;;;;;;;8.29;46.38;93186.66;2065173;69;20141;-77
2021/04/01 04:43:51;;;;;;;12.80;2.92;;;;;;;7.72;47.18;93189.91;2065139;69;20129;-76
2021/04/01 04:46:17;;;;;;;36.65;23.08;;;;;;;7.70;47.71;93187.72;2065343;69;20445;-77
2021/04/01 04:48:42;;;;;;;27.58;16.15;;;;;;;7.95;47.55;93200.81;2065257;69;20156;-75
2021/04/01 04:51:08;;;;;;;25.92;14.82;;;;;;;7.98;47.54;93196.88;2065368;69;20157;-77
2021/04/01 04:53:34;;;;;;;25.00;14.02;;;;;;;8.06;47.40;93201.03;2065218;69;20239;-76
2021/04/01 04:56:14;;;;;;;16.42;11.18;;;;;;;8.11;45.77;93197.22;2065232;69;20151;-76
2021/04/01 05:06:55;;;;;;;11.07;6.13;;;;;;;8.22;45.87;93201.53;2065320;69;20152;-77
2021/04/01 05:09:21;;;;;;;15.30;5.25;;;;;;;8.37;44.97;93203.41;2065223;69;20581;-76
2021/04/01 05:11:48;;;;;;;17.10;4.38;;;;;;;8.54;44.70;93208.19;2065234;69;20615;-76
2021/04/01 05:14:14;;;;;;;12.63;5.30;;;;;;;7.89;47.78;93209.50;2065170;69;20198;-76
2021/04/01 05:16:39;;;;;;;18.48;4.65;;;;;;;7.77;47.25;93211.34;2065183;69;20601;-76
2021/04/01 05:19:08;;;;;;;14.52;4.60;;;;;;;7.56;48.02;93206.94;2065201;69;20145;-77
2021/04/01 05:24:09;;;;;;;18.80;9.18;;;;;;;8.05;46.95;93212.81;2065178;69;20147;-77
2021/04/01 05:29:12;;;;;;;15.93;4.97;;;;;;;8.08;46.17;93212.41;2065039;69;20137;-75
2021/04/01 05:31:40;;;;;;;18.50;5.15;;;;;;;7.71;47.11;93208.81;2065077;69;20156;-76
2021/04/01 05:34:06;;;;;;;24.88;10.90;;;;;;;7.83;47.49;93209.78;2065137;69;20180;-76
2021/04/01 05:36:36;;;;;;;19.50;8.80;;;;;;;7.99;48.06;93215.91;2065096;69;20235;-74
2021/04/01 05:39:02;;;;;;;64.35;21.17;;;;;;;8.10;47.72;93217.41;2061803;69;20183;-76
2021/04/01 05:41:30;;;;;;;89.35;27.90;;;;;;;8.09;47.54;93213.13;2065115;69;20173;-75
2021/04/01 05:49:46;;;;;;;53.50;18.00;;;;;;;8.54;46.39;93225.03;2065254;69;20153;-77
2021/04/01 06:05:49;;;;;;;20.65;4.78;;;;;;;8.72;45.03;93240.44;2065075;69;20157;-77
2021/04/01 06:08:22;;;;;;;9.60;3.60;;;;;;;8.92;44.24;93235.63;2065191;69;20145;-78
2021/04/01 06:10:50;;;;;;;6.20;2.10;;;;;;;9.18;41.69;93236.13;2065171;69;20145;-76
2021/04/01 06:13:18;;;;;;;6.82;2.25;;;;;;;9.36;41.66;93231.84;2064961;69;20179;-77
2021/04/01 06:15:49;;;;;;;4.78;1.80;;;;;;;9.48;41.76;93223.56;2065223;69;20168;-77
2021/04/01 06:18:17;;;;;;;5.85;2.25;;;;;;;9.61;42.67;93229.47;2065097;69;20144;-77
2021/04/01 06:20:46;;;;;;;20.17;3.47;;;;;;;9.52;42.88;93233.03;2065160;69;20153;-77
2021/04/01 06:23:26;;;;;;;36.40;5.55;;;;;;;9.58;42.31;93229.94;2065178;69;20222;-77
2021/04/01 06:25:55;;;;;;;16.65;4.28;;;;;;;9.42;43.90;93233.03;2065255;69;20152;-77
2021/04/01 06:28:34;;;;;;;9.57;3.90;;;;;;;9.05;42.90;93237.28;2064952;69;20141;-77
2021/04/01 06:31:04;;;;;;;12.80;4.85;;;;;;;9.34;43.27;93234.50;2065158;69;20168;-77
2021/04/01 06:33:42;;;;;;;8.70;3.85;;;;;;;9.62;42.76;93225.34;2065109;69;20156;-77
2021/04/01 06:36:16;;;;;;;9.70;3.90;;;;;;;9.71;42.89;93234.34;2065027;69;20145;-76
2021/04/01 06:38:42;;;;;;;15.40;4.25;;;;;;;9.60;43.34;93235.69;2065018;69;20144;-76
2021/04/01 06:41:22;;;;;;;10.05;3.53;;;;;;;9.66;43.61;93222.81;2065031;69;20671;-76
2021/04/01 06:44:15;;;;;;;17.42;5.05;;;;;;;9.35;44.34;93224.75;2061591;69;20521;-76
2021/04/01 06:46:42;;;;;;;;;;;;;;;9.50;43.71;93221.66;2061963;69;20679;-77
2021/04/01 06:57:42;;;;;;;23.45;6.13;;;;;;;9.72;43.62;93216.16;2064948;69;20149;-77
2021/04/01 07:03:00;;;;;;;30.75;6.90;;;;;;;10.67;43.70;93220.09;2064978;69;20133;-76
2021/04/01 07:05:39;;;;;;;;;;;;;;;11.43;42.66;93216.66;2065257;69;20199;-76
2021/04/01 07:08:08;;;;;;;11.27;4.70;;;;;;;12.02;40.94;93222.56;2065076;69;20125;-76
2021/04/01 07:10:45;;;;;;;17.80;5.25;;;;;;;11.69;41.58;93217.66;2064938;69;20173;-77
2021/04/01 07:13:18;;;;;;;14.38;4.85;;;;;;;12.68;40.50;93226.00;2065224;69;20157;-77
2021/04/01 07:15:47;;;;;;;21.40;5.60;;;;;;;12.79;40.04;93218.16;2064929;69;20171;-77
2021/04/01 07:47:55;;;;;;;5.75;3.08;;;;;;;15.98;31.42;93200.94;2065148;69;20147;-81
2021/04/01 07:50:22;;;;;;;10.32;3.92;;;;;;;16.13;32.40;93191.03;2064983;69;20581;-81
2021/04/01 07:52:57;;;;;;;13.27;3.97;;;;;;;16.70;30.41;93199.38;2065163;69;20152;-79
2021/04/01 07:58:08;;;;;;;13.80;3.80;;;;;;;16.57;30.53;93191.66;2062073;69;20161;-80
2021/04/01 08:03:53;;;;;;;18.33;3.80;;;;;;;18.58;28.13;93187.41;2065612;69;20144;-80
2021/04/01 08:06:19;;;;;;;20.23;4.32;;;;;;;18.28;29.76;93187.69;2053605;70;20649;-81
2021/04/01 08:08:46;;;;;;;20.55;5.25;;;;;;;16.91;31.43;93177.59;2054555;69;20181;-81
2021/04/01 08:11:19;;;;;;;18.33;3.88;;;;;;;17.58;29.42;93180.50;2054692;69;20168;-81
2021/04/01 08:13:56;;;;;;;14.38;4.25;;;;;;;18.73;28.19;93186.59;2054604;70;20586;-81
2021/04/01 08:16:23;;;;;;;9.40;3.70;;;;;;;18.67;27.55;93174.94;2054522;69;20144;-79
2021/04/01 08:18:52;;;;;;;17.67;4.38;;;;;;;19.30;27.87;93176.59;2054551;69;20156;-80
2021/04/01 08:21:18;;;;;;;11.00;4.20;;;;;;;18.44;27.97;93167.66;2054616;70;20224;-74
2021/04/01 08:23:52;;;;;;;6.97;3.00;;;;;;;20.23;25.39;93166.91;2052087;70;20264;-73
2021/04/01 08:36:53;;;;;;;4.50;1.80;;;;;;;19.94;24.62;93157.41;2054543;70;20165;-75
2021/04/01 08:39:22;;;;;;;7.05;1.83;;;;;;;21.45;22.64;93156.31;2054564;69;20138;-78
2021/04/01 08:42:08;;;;;;;5.68;1.70;;;;;;;22.55;20.93;93162.00;2056445;69;20156;-79
2021/04/01 08:48:16;;;;;;;6.35;1.52;;;;;;;22.82;21.01;93148.25;2059048;69;20620;-79
2021/04/01 08:51:08;;;;;;;4.32;1.60;;;;;;;23.38;21.09;93156.63;2065328;69;20137;-80
2021/04/01 08:53:38;;;;;;;6.43;1.55;;;;;;;22.70;21.64;93142.97;2057948;69;20229;-79
2021/04/01 08:56:21;;;;;;;8.85;1.80;;;;;;;22.86;21.28;93142.56;2065431;69;20188;-81
2021/04/01 08:58:56;;;;;;;4.10;1.55;;;;;;;23.61;19.93;93148.47;2062012;69;20141;-79
2021/04/01 09:01:28;;;;;;;6.15;1.45;;;;;;;24.77;19.36;93131.06;2061866;69;20199;-80
2021/04/01 09:03:59;;;;;;;8.18;1.67;;;;;;;24.79;20.27;93136.13;2065133;69;20628;-80
2021/04/01 09:06:37;;;;;;;13.52;1.83;;;;;;;23.88;20.44;93133.19;2065054;69;20247;-80
2021/04/01 09:09:11;;;;;;;10.30;2.03;;;;;;;23.56;20.59;93119.66;2065175;69;20145;-80
2021/04/01 09:11:45;;;;;;;9.43;2.20;;;;;;;24.47;20.98;93116.22;2061892;69;20149;-80
2021/04/01 09:14:26;;;;;;;10.13;2.00;;;;;;;23.81;21.19;93114.38;2065099;69;20232;-75
2021/04/01 09:17:05;;;;;;;8.90;2.00;;;;;;;24.89;20.23;93101.72;2065168;69;20145;-77
2021/04/01 09:19:31;;;;;;;6.60;1.90;;;;;;;26.10;18.69;93104.56;2065206;69;20506;-79
2021/04/01 09:21:58;;;;;;;7.15;1.70;;;;;;;24.38;20.23;93100.25;2065048;69;20239;-75
2021/04/01 09:24:28;;;;;;;10.95;1.90;;;;;;;25.21;19.46;93092.09;2065286;69;20277;-78
2021/04/01 09:26:55;;;;;;;12.32;2.20;;;;;;;23.65;19.05;93091.09;2065193;69;20164;-79
2021/04/01 09:29:21;;;;;;;7.70;1.85;;;;;;;25.78;18.66;93086.97;2065701;69;20606;-80
2021/04/01 09:31:58;;;;;;;6.78;1.60;;;;;;;26.39;18.20;93087.53;2061899;69;20160;-77
2021/04/01 09:34:25;;;;;;;6.80;1.60;;;;;;;26.29;17.53;93082.38;2065420;69;20253;-79
2021/04/01 09:36:51;;;;;;;7.05;1.33;;;;;;;24.71;18.73;93073.41;2065169;69;20682;-77
2021/04/01 09:39:28;;;;;;;7.20;1.42;;;;;;;26.25;17.45;93079.47;2065119;69;20148;-77
2021/04/01 09:42:12;;;;;;;3.53;1.33;;;;;;;28.12;16.43;93078.94;2065097;69;20629;-79
2021/04/01 09:44:53;;;;;;;4.60;1.50;;;;;;;25.30;18.06;93076.34;2064985;69;20609;-79
2021/04/01 09:47:43;;;;;;;4.82;1.30;;;;;;;26.95;18.15;93077.09;2065248;69;20160;-79
2021/04/01 09:50:14;;;;;;;5.32;1.67;;;;;;;26.84;17.17;93071.22;2065238;69;20581;-78
2021/04/01 09:52:42;;;;;;;9.25;2.13;;;;;;;27.60;17.21;93072.31;2065295;69;20505;-77
2021/04/01 09:55:14;;;;;;;4.95;1.50;;;;;;;25.43;17.71;93062.78;2065094;69;20145;-80
2021/04/01 09:57:50;;;;;;;6.97;1.75;;;;;;;26.82;15.95;93065.47;2062327;69;20232;-78
2021/04/01 10:03:46;;;;;;;6.35;1.50;;;;;;;28.04;16.24;93058.66;2059778;69;20152;-79
2021/04/01 10:06:26;;;;;;;3.75;1.25;;;;;;;26.64;17.44;93047.28;2058438;69;20219;-79
2021/04/01 10:08:51;;;;;;;7.55;1.50;;;;;;;28.27;15.87;93044.94;2065234;69;20145;-81
2021/04/01 10:11:29;;;;;;;8.35;1.60;;;;;;;27.70;16.56;93041.97;2061796;69;20132;-79
2021/04/01 10:14:07;;;;;;;6.60;1.80;;;;;;;26.60;17.02;93031.38;2061602;69;20631;-80
2021/04/01 10:16:34;;;;;;;8.32;1.92;;;;;;;28.60;15.98;93029.03;2065047;69;20197;-80
2021/04/01 10:19:01;;;;;;;9.52;1.70;;;;;;;28.14;15.49;93031.94;2065078;69;20152;-80
2021/04/01 10:21:26;;;;;;;3.50;1.38;;;;;;;28.78;16.55;93018.84;2065102;69;20597;-79
2021/04/01 10:23:54;;;;;;;3.13;1.55;;;;;;;29.00;14.34;93012.28;2065023;69;20147;-79
2021/04/01 10:26:30;;;;;;;5.38;1.50;;;;;;;28.08;14.52;93007.31;2064605;69;20156;-74
2021/04/01 10:29:04;;;;;;;6.53;1.50;;;;;;;31.64;12.76;93011.59;2064487;69;20155;-77
2021/04/01 10:31:41;;;;;;;8.15;1.60;;;;;;;29.67;13.64;93006.19;2061568;69;20137;-81
2021/04/01 10:34:21;;;;;;;6.90;1.25;;;;;;;29.92;12.99;92997.31;2064862;69;20219;-80
2021/04/01 10:36:49;;;;;;;4.85;1.42;;;;;;;31.98;11.60;93001.69;2064781;69;20148;-81
2021/04/01 10:39:17;;;;;;;6.45;1.40;;;;;;;28.70;13.78;92987.00;2064831;69;20192;-82
2021/04/01 10:41:47;;;;;;;7.57;1.65;;;;;;;34.73;10.32;92991.78;2064781;69;20153;-75
2021/04/01 10:44:14;;;;;;;5.50;1.27;;;;;;;33.95;10.67;92990.00;2064564;69;20224;-77
2021/04/01 10:47:01;;;;;;;6.53;1.38;;;;;;;37.87;9.33;93000.22;2064849;69;20278;-80
2021/04/01 10:49:32;;;;;;;5.38;1.48;;;;;;;37.03;10.02;92990.78;2064765;69;20176;-77
2021/04/01 10:52:09;;;;;;;4.22;1.65;;;;;;;35.68;9.70;92985.53;2064971;69;20590;-77
2021/04/01 10:54:39;;;;;;;7.75;1.45;;;;;;;36.97;10.37;92976.31;2064788;69;20180;-81
2021/04/01 10:57:06;;;;;;;3.78;1.30;;;;;;;40.91;8.48;92983.25;2064710;69;20172;-81
2021/04/01 10:59:42;;;;;;;6.00;1.50;;;;;;;40.04;8.65;92973.44;2064696;69;20651;-79
2021/04/01 11:02:17;;;;;;;9.70;1.65;;;;;;;39.38;8.18;92969.81;2064936;69;20233;-81
2021/04/01 11:04:46;;;;;;;4.03;1.77;;;;;;;43.24;7.36;92977.22;2064670;69;20160;-82
2021/04/01 11:07:12;;;;;;;5.57;2.42;;;;;;;42.13;7.57;92967.28;2065035;69;20125;-81
2021/04/01 11:09:40;;;;;;;10.80;2.10;;;;;;;43.42;6.96;92960.59;2061461;69;20164;-82
2021/04/01 11:14:39;;;;;;;5.38;1.85;;;;;;;45.91;5.94;92971.13;2064687;69;20144;-80
2021/04/01 11:17:08;;;;;;;6.93;1.73;;;;;;;44.57;6.41;92960.13;2064736;69;20153;-79
2021/04/01 11:19:35;;;;;;;7.90;1.60;;;;;;;45.41;6.88;92955.31;2064819;69;20168;-82
2021/04/01 11:22:03;;;;;;;8.02;2.03;;;;;;;41.73;7.49;92952.47;2061528;69;20149;-79
2021/04/01 11:24:30;;;;;;;8.48;2.13;;;;;;;39.74;8.20;92934.34;2064697;69;20145;-81
2021/04/01 11:26:56;;;;;;;8.13;1.85;;;;;;;38.38;9.29;92927.69;2064897;69;20156;-84
2021/04/01 11:29:30;;;;;;;8.50;2.33;;;;;;;45.80;6.48;92944.41;2064896;69;20144;-76
2021/04/01 11:32:11;;;;;;;9.40;4.05;;;;;;;45.69;6.28;92934.06;2065526;69;20165;-81
2021/04/01 11:34:37;;;;;;;6.72;2.67;;;;;;;46.33;5.91;92934.69;2065240;69;20145;-77
2021/04/01 11:37:05;;;;;;;8.18;4.72;;;;;;;44.64;6.76;92925.56;2065368;69;20515;-75
2021/04/01 11:39:39;;;;;;;6.60;2.45;;;;;;;46.75;6.74;92929.44;2065269;69;20156;-73
2021/04/01 11:42:14;;;;;;;6.80;4.63;;;;;;;44.05;6.86;92918.19;2065327;69;20157;-74
2021/04/01 11:44:41;;;;;;;5.35;1.95;;;;;;;48.09;5.71;92924.34;2061771;69;20203;-73
2021/04/01 11:47:20;;;;;;;6.45;2.83;;;;;;;42.73;7.21;92914.38;2065348;69;20141;-73
2021/04/01 11:49:48;;;;;;;5.90;2.20;;;;;;;44.29;6.93;92915.22;2065381;69;20148;-79
2021/04/01 11:52:18;;;;;;;3.42;2.05;;;;;;;46.74;6.96;92913.09;2065362;69;20208;-76
2021/04/01 11:54:46;;;;;;;6.43;1.90;;;;;;;47.98;6.06;92911.81;2065184;69;20180;-73
2021/04/01 11:57:30;;;;;;;5.30;1.75;;;;;;;46.07;7.35;92901.56;2065222;69;20181;-75
2021/04/01 12:00:03;;;;;;;21.48;3.78;;;;;;;44.94;7.08;92899.03;2065090;69;20170;-80
2021/04/01 12:02:59;;;;;;;11.23;2.42;;;;;;;43.71;7.46;92899.59;2065552;69;20199;-79
2021/04/01 12:05:28;;;;;;;6.07;2.03;;;;;;;43.38;7.43;92883.81;2061887;69;20248;-77
2021/04/01 12:08:12;;;;;;;6.00;2.00;;;;;;;43.14;8.40;92883.06;2054457;69;20146;-80
2021/04/01 12:10:38;;;;;;;5.55;1.80;;;;;;;46.30;6.66;92879.13;2054336;70;20152;-81
2021/04/01 12:13:05;;;;;;;5.95;1.50;;;;;;;47.95;6.24;92890.38;2054341;69;20193;-84
2021/04/01 12:15:35;;;;;;;4.75;1.60;;;;;;;44.67;6.80;92864.47;2053912;69;20621;-78
2021/04/01 12:18:03;;;;;;;14.85;1.88;;;;;;;45.95;6.64;92869.03;2054350;70;20145;-76
2021/04/01 12:20:29;;;;;;;4.93;1.50;;;;;;;47.33;6.87;92864.69;2054061;70;20644;-80
2021/04/01 12:22:55;;;;;;;5.30;1.55;;;;;;;47.42;6.74;92870.69;2054315;70;20154;-81
2021/04/01 12:25:23;;;;;;;7.20;1.50;;;;;;;39.59;8.65;92840.75;2054786;70;20545;-85
2021/04/01 12:27:56;;;;;;;6.35;1.60;;;;;;;45.48;6.69;92845.59;2051727;70;20138;-86
2021/04/01 12:30:28;;;;;;;3.25;1.30;;;;;;;42.79;7.63;92845.94;2052048;70;20198;-85
2021/04/01 12:33:07;;;;;;;4.30;1.38;;;;;;;42.98;7.26;92839.63;2054688;70;20173;-79
2021/04/01 12:35:34;;;;;;;7.95;1.70;;;;;;;43.43;7.72;92839.84;2054648;70;20134;-84
2021/04/01 12:38:03;;;;;;;5.97;1.67;;;;;;;43.09;8.07;92826.34;2054280;70;20248;-83
2021/04/01 12:40:36;;;;;;;4.07;1.50;;;;;;;40.68;8.34;92818.44;2053882;70;20599;-75
2021/04/01 12:43:08;;;;;;;4.30;1.50;;;;;;;38.74;9.55;92801.19;2053724;69;20154;-79
2021/04/01 12:45:37;;;;;;;5.38;1.77;;;;;;;40.52;8.49;92804.56;2059185;69;20621;-79
2021/04/01 12:48:08;;;;;;;5.55;1.90;;;;;;;45.35;6.88;92801.88;2065166;69;20155;-76
2021/04/01 12:50:35;;;;;;;7.35;1.50;;;;;;;45.24;6.98;92803.47;2064994;69;20188;-75
2021/04/01 12:53:02;;;;;;;5.72;1.42;;;;;;;46.12;7.04;92806.78;2063071;69;20200;-76
2021/04/01 12:55:41;;;;;;;5.97;1.75;;;;;;;44.41;7.13;92792.06;2064446;69;20168;-75
2021/04/01 12:58:12;;;;;;;9.27;1.70;;;;;;;40.52;9.03;92778.00;2064944;69;20618;-76
2021/04/01 13:00:47;;;;;;;6.57;1.70;;;;;;;40.96;8.63;92780.84;2064996;69;20592;-76
2021/04/01 13:03:13;;;;;;;6.10;1.65;;;;;;;43.96;7.38;92786.81;2065120;69;20235;-77
2021/04/01 13:05:45;;;;;;;5.65;1.40;;;;;;;41.12;8.24;92773.34;2065141;69;20166;-78
2021/04/01 13:10:41;;;;;;;6.13;1.77;;;;;;;46.54;6.05;92791.00;2065321;69;20075;-78
2021/04/01 13:13:08;;;;;;;3.50;1.60;;;;;;;44.00;7.02;92779.91;2065369;69;20175;-78
2021/04/01 13:15:34;;;;;;;4.50;1.60;;;;;;;46.04;6.18;92781.31;2065025;69;20539;-78
2021/04/01 13:18:00;;;;;;;6.68;1.80;;;;;;;44.79;6.13;92771.63;2065182;69;20145;-76
2021/04/01 13:20:25;;;;;;;4.57;1.52;;;;;;;46.28;6.38;92772.16;2065311;69;20594;-73
2021/04/01 13:25:45;;;;;;;9.02;1.60;;;;;;;44.96;6.35;92762.28;2061016;69;20623;-76
2021/04/01 13:28:11;;;;;;;8.40;1.50;;;;;;;45.24;6.35;92771.47;2065227;69;20176;-77
2021/04/01 13:30:37;;;;;;;7.15;1.60;;;;;;;45.93;5.96;92762.13;2065048;69;20145;-75
2021/04/01 13:33:12;;;;;;;2.70;1.40;;;;;;;46.30;5.96;92763.09;2065173;69;20148;-78
2021/04/01 13:36:01;;;;;;;5.30;1.60;;;;;;;42.12;8.08;92750.03;2065152;69;20665;-78
2021/04/01 13:38:32;;;;;;;8.68;1.52;;;;;;;37.97;8.79;92737.63;2065216;69;20145;-78
2021/04/01 13:41:00;;;;;;;5.30;1.48;;;;;;;34.88;11.43;92720.91;2065226;69;20510;-77
2021/04/01 13:43:29;;;;;;;4.50;1.50;;;;;;;32.94;12.61;92726.03;2065130;69;20137;-78